createdAt,value
2019-05-16T00:02:22.559Z,2.98
2019-05-16T00:07:30.088Z,3.00
2019-05-16T00:12:40.018Z,3.07
2019-05-16T00:17:44.693Z,4.41
2019-05-16T00:22:52.148Z,3.97
2019-05-16T00:27:59.600Z,3.68
2019-05-16T00:33:08.319Z,3.56
2019-05-16T00:38:14.082Z,3.71
2019-05-16T00:43:21.470Z,3.45
2019-05-16T00:48:29.030Z,3.37
2019-05-16T00:53:38.262Z,3.58
2019-05-16T00:58:43.859Z,3.51
2019-05-16T01:03:51.496Z,4.02
2019-05-16T01:08:58.976Z,3.25
2019-05-16T01:14:08.288Z,3.18
2019-05-16T01:19:13.534Z,2.61
2019-05-16T01:24:20.955Z,2.55
2019-05-16T01:29:28.545Z,2.43
2019-05-16T01:34:37.771Z,2.78
2019-05-16T01:39:42.920Z,2.61
2019-05-16T01:44:50.347Z,2.47
2019-05-16T01:49:58.108Z,2.78
2019-05-16T01:55:05.233Z,2.52
2019-05-16T02:00:12.765Z,2.56
2019-05-16T02:05:20.159Z,2.64
2019-05-16T02:10:28.410Z,2.65
2019-05-16T02:15:34.529Z,2.59
2019-05-16T02:20:41.986Z,2.73
2019-05-16T02:25:49.347Z,2.69
2019-05-16T02:30:56.858Z,2.74
2019-05-16T02:36:04.224Z,2.79
2019-05-16T02:41:11.630Z,3.06
2019-05-16T02:46:21.928Z,2.97
2019-05-16T02:51:26.043Z,3.17
2019-05-16T02:56:33.489Z,2.80
2019-05-16T03:01:41.114Z,2.72
2019-05-16T03:06:51.112Z,2.60
2019-05-16T03:11:55.419Z,3.06
2019-05-16T03:17:02.836Z,3.09
2019-05-16T03:22:11.707Z,3.27
2019-05-16T03:27:17.192Z,3.88
2019-05-16T03:32:24.731Z,2.94
2019-05-16T03:37:49.507Z,3.26
2019-05-16T03:42:41.637Z,3.71
2019-05-16T03:47:46.016Z,3.55
2019-05-16T03:52:53.540Z,3.34
2019-05-16T03:58:01.459Z,3.66
2019-05-16T04:03:07.928Z,3.79
2019-05-16T04:08:19.567Z,3.63
2019-05-16T04:13:22.473Z,3.64
2019-05-16T04:18:31.862Z,3.63
2019-05-16T04:23:36.814Z,3.53
2019-05-16T04:28:44.207Z,3.57
2019-05-16T04:33:51.936Z,3.48
2019-05-16T04:39:01.560Z,3.59
2019-05-16T04:44:05.783Z,3.67
2019-05-16T04:49:13.209Z,3.28
2019-05-16T04:54:21.535Z,3.46
2019-05-16T04:59:27.583Z,3.36
2019-05-16T05:04:35.027Z,3.56
2019-05-16T05:09:42.450Z,3.62
2019-05-16T05:14:51.085Z,3.45
2019-05-16T05:19:56.841Z,2.68
2019-05-16T05:25:04.170Z,2.86
2019-05-16T05:30:11.696Z,3.02
2019-05-16T05:35:20.612Z,2.78
2019-05-16T05:40:26.072Z,2.98
2019-05-16T05:45:33.540Z,2.73
2019-05-16T05:50:41.076Z,3.03
2019-05-16T05:55:51.051Z,2.81
2019-05-16T06:00:55.443Z,2.76
2019-05-16T06:06:02.977Z,3.04
2019-05-16T06:11:10.402Z,2.92
2019-05-16T06:16:20.147Z,2.91
2019-05-16T06:21:24.789Z,2.77
2019-05-16T06:26:32.223Z,2.63
2019-05-16T06:31:40.685Z,2.94
2019-05-16T06:36:46.600Z,2.67
2019-05-16T06:41:54.086Z,3.02
2019-05-16T06:47:15.755Z,2.76
2019-05-16T06:52:10.405Z,2.68
2019-05-16T06:57:15.572Z,2.84
2019-05-16T07:02:30.266Z,3.00
2019-05-16T07:07:30.810Z,2.35
2019-05-16T07:12:36.919Z,2.14
2019-05-16T07:17:44.319Z,2.31
2019-05-16T07:22:51.744Z,2.24
2019-05-16T07:28:00.696Z,2.22
2019-05-16T07:33:06.190Z,2.06
2019-05-16T07:38:13.561Z,2.37
2019-05-16T07:43:20.967Z,2.22
2019-05-16T07:48:31.238Z,2.05
2019-05-16T07:53:35.364Z,2.08
2019-05-16T07:58:42.765Z,2.55
2019-05-16T08:03:50.945Z,2.42
2019-05-16T08:08:57.081Z,2.46
2019-05-16T08:14:04.457Z,2.32
2019-05-16T08:19:11.833Z,2.56
2019-05-16T08:24:20.551Z,2.32
2019-05-16T08:29:26.236Z,2.49
2019-05-16T08:34:33.815Z,2.39
2019-05-16T08:39:41.468Z,2.28
2019-05-16T08:44:51.594Z,2.39
2019-05-16T08:49:55.689Z,2.02
2019-05-16T08:55:03.654Z,2.22
2019-05-16T09:00:14.547Z,2.58
2019-05-16T09:05:16.959Z,2.48
2019-05-16T09:10:50.022Z,2.56
2019-05-16T09:15:31.446Z,2.66
2019-05-16T09:20:42.725Z,2.71
2019-05-16T09:25:48.448Z,2.79
2019-05-16T09:30:52.842Z,2.71
2019-05-16T09:36:00.286Z,2.59
2019-05-16T09:41:08.007Z,2.41
2019-05-16T09:46:16.969Z,2.57
2019-05-16T09:51:21.591Z,2.34
2019-05-16T09:56:29.246Z,2.26
2019-05-16T10:01:37.018Z,2.74
2019-05-16T10:06:43.504Z,3.14
2019-05-16T10:12:05.274Z,2.93
2019-05-16T10:16:58.044Z,2.99
2019-05-16T10:22:07.323Z,2.45
2019-05-16T10:27:12.429Z,2.31
2019-05-16T10:32:19.838Z,2.48
2019-05-16T10:37:27.452Z,2.44
2019-05-16T10:42:37.680Z,2.70
2019-05-16T10:47:41.839Z,2.89
2019-05-16T10:53:12.904Z,2.60
2019-05-16T10:57:56.730Z,2.56
2019-05-16T11:03:03.288Z,3.14
2019-05-16T11:08:10.824Z,2.66
2019-05-16T11:13:20.230Z,2.35
2019-05-16T11:18:27.251Z,2.89
2019-05-16T11:23:32.067Z,2.91
2019-05-16T11:28:39.541Z,3.22
2019-05-16T11:33:47.715Z,2.93
2019-05-16T11:38:58.584Z,2.93
2019-05-16T11:44:00.914Z,3.19
2019-05-16T11:49:08.300Z,2.87
2019-05-16T11:54:15.776Z,3.27
2019-05-16T11:59:23.225Z,3.41
2019-05-16T12:04:30.697Z,3.15
2019-05-16T12:09:47.188Z,3.05
2019-05-16T12:14:45.102Z,3.07
2019-05-16T12:19:52.854Z,2.93
2019-05-16T12:24:59.517Z,2.76
2019-05-16T12:30:13.070Z,3.34
2019-05-16T12:35:13.938Z,3.68
2019-05-16T12:40:21.363Z,3.95
2019-05-16T12:45:28.792Z,2.93
2019-05-16T12:50:38.869Z,3.75
2019-05-16T12:55:47.742Z,4.02
2019-05-16T13:00:44.046Z,2.83
2019-05-16T13:05:50.211Z,3.97
2019-05-16T13:10:57.961Z,3.76
2019-05-16T13:16:08.058Z,3.75
2019-05-16T13:21:08.349Z,4.28
2019-05-16T13:26:08.729Z,4.30
2019-05-16T13:31:07.782Z,4.88
2019-05-16T13:36:13.084Z,4.79
2019-05-16T13:41:20.478Z,6.22
2019-05-16T13:46:27.884Z,5.82
2019-05-16T13:51:40.251Z,5.50
2019-05-16T13:56:40.562Z,8.18
2019-05-16T14:01:38.072Z,6.09
2019-05-16T14:06:47.565Z,7.73
2019-05-16T14:11:52.646Z,6.71
2019-05-16T14:17:00.834Z,5.39
2019-05-16T14:22:11.407Z,5.55
2019-05-16T14:27:08.852Z,6.27
2019-05-16T14:32:20.128Z,4.96
2019-05-16T14:37:26.821Z,4.35
2019-05-16T14:42:33.491Z,4.32
2019-05-16T14:47:40.908Z,4.39
2019-05-16T14:52:48.332Z,3.97
2019-05-16T14:57:56.739Z,3.89
2019-05-16T15:03:02.879Z,4.34
2019-05-16T15:08:10.817Z,5.18
2019-05-16T15:13:18.232Z,3.99
2019-05-16T15:18:27.794Z,3.81
2019-05-16T15:23:32.634Z,3.40
2019-05-16T15:28:40.357Z,3.74
2019-05-16T15:33:47.776Z,3.71
2019-05-16T15:38:56.693Z,3.85
2019-05-16T15:44:02.196Z,3.78
2019-05-16T15:49:10.523Z,3.63
2019-05-16T15:54:17.951Z,3.68
2019-05-16T15:59:23.854Z,4.13
2019-05-16T16:04:31.362Z,3.85
2019-05-16T16:09:38.919Z,3.61
2019-05-16T16:14:46.908Z,3.79
2019-05-16T16:19:54.287Z,3.95
2019-05-16T16:25:01.810Z,3.38
2019-05-16T16:30:09.295Z,4.24
2019-05-16T16:35:17.320Z,4.22
2019-05-16T16:40:26.548Z,3.91
2019-05-16T16:45:30.854Z,4.26
2019-05-16T16:50:38.334Z,5.07
2019-05-16T16:55:47.597Z,5.20
2019-05-16T17:00:52.712Z,5.57
2019-05-16T17:06:00.167Z,5.84
2019-05-16T17:11:07.888Z,5.34
2019-05-16T17:16:22.993Z,5.82
2019-05-16T17:21:22.379Z,5.36
2019-05-16T17:26:29.837Z,5.39
2019-05-16T17:31:37.413Z,4.79
2019-05-16T17:36:46.646Z,4.49
2019-05-16T17:41:54.785Z,5.05
2019-05-16T17:46:58.861Z,3.59
2019-05-16T17:52:07.811Z,4.71
2019-05-16T17:57:17.046Z,4.24
2019-05-16T18:02:22.570Z,4.11
2019-05-16T18:07:29.939Z,4.97
2019-05-16T18:12:37.461Z,3.51
2019-05-16T18:17:46.678Z,4.41
2019-05-16T18:22:51.949Z,3.99
2019-05-16T18:27:59.382Z,4.00
2019-05-16T18:33:07.497Z,3.26
2019-05-16T18:38:13.943Z,3.86
2019-05-16T18:43:21.553Z,4.52
2019-05-16T18:48:28.895Z,4.63
2019-05-16T18:53:37.503Z,5.17
2019-05-16T18:58:43.419Z,4.82
2019-05-16T19:03:50.937Z,5.23
2019-05-16T19:08:58.565Z,5.41
2019-05-16T19:19:11.210Z,6.10
2019-05-16T19:24:08.680Z,6.94
2019-05-16T19:29:17.379Z,5.97
2019-05-16T19:34:23.157Z,7.44
2019-05-16T19:39:30.682Z,8.57
2019-05-16T19:44:38.849Z,8.32
2019-05-16T19:49:46.495Z,7.73
2019-05-16T19:54:56.305Z,9.49
2019-05-16T20:00:01.130Z,10.21
2019-05-16T20:05:08.802Z,11.80
2019-05-16T20:10:16.877Z,10.77
2019-05-16T20:15:23.660Z,10.97
2019-05-16T20:20:31.125Z,12.11
2019-05-16T20:25:38.762Z,12.57
2019-05-16T20:30:47.594Z,13.31
2019-05-16T20:35:53.366Z,14.64
2019-05-16T20:41:00.957Z,15.99
2019-05-16T20:46:08.502Z,16.79
2019-05-16T20:51:16.920Z,18.44
2019-05-16T20:56:23.587Z,19.60
2019-05-16T21:01:30.999Z,17.22
2019-05-16T21:06:38.391Z,20.86
2019-05-16T21:11:46.846Z,20.99
2019-05-16T21:16:53.029Z,21.54
2019-05-16T21:22:00.692Z,21.32
2019-05-16T21:27:08.215Z,21.55
2019-05-16T21:32:16.267Z,21.01
2019-05-16T21:37:22.598Z,21.89
2019-05-16T21:42:31.031Z,20.40
2019-05-16T21:47:38.531Z,21.17
2019-05-16T21:52:47.032Z,20.76
2019-05-16T21:57:53.152Z,18.55
2019-05-16T22:03:00.651Z,20.39
2019-05-16T22:08:08.113Z,21.06
2019-05-16T22:13:15.576Z,21.21
2019-05-16T22:18:23.018Z,21.03
2019-05-16T22:23:30.706Z,20.56
2019-05-16T22:28:38.207Z,19.27
2019-05-16T22:33:46.902Z,20.17
2019-05-16T22:38:52.570Z,21.09
2019-05-16T22:44:00.053Z,20.50
2019-05-16T22:49:07.710Z,20.46
2019-05-16T22:54:17.045Z,20.52
2019-05-16T22:59:21.891Z,20.65
2019-05-16T23:04:29.308Z,19.72
2019-05-16T23:09:36.738Z,19.35
2019-05-16T23:14:46.189Z,20.72
2019-05-16T23:19:52.496Z,20.79
2019-05-16T23:24:59.850Z,21.30
2019-05-16T23:30:07.510Z,20.11
2019-05-16T23:35:14.771Z,21.10
2019-05-16T23:40:22.179Z,20.62
2019-05-16T23:45:29.648Z,20.44
2019-05-16T23:50:37.279Z,20.23
2019-05-16T23:55:46.756Z,20.42
